Flight Track Log - Related Links

Times and Time Zones

All times are in EDT time to prevent confusion due to time zone crossing. See the N36LA flight status page for this flight to view local times or setup timezone preferences in your user account.

Time Position Orientation Groundspeed Altitude Reporting Facility
EDT Latitude Longitude Course Direction KTS MPH feet Rate Location/Type
Sun 05:13:01 PM 36.4108 -77.7031 344° North 159 183 3,100  Level Washington Center
Sun 05:17:59 PM 36.5456 -77.7508 351° North 101 116 6,500 652 Climbing Washington Center
Sun 05:19:00 PM 36.5747 -77.7567 350° North 101 116 7,000 492 Climbing Washington Center
Sun 05:20:01 PM 36.6017 -77.7625 359° North 101 116 7,500 504 Climbing Washington Center
Sun 05:20:59 PM 36.6308 -77.7633 345° North 101 116 8,000 252 Climbing Washington Center
Sun 05:22:00 PM 36.6642 -77.7747 356° North 106 122 8,000  Level Washington Center
Sun 05:23:00 PM 36.7036 -77.7783 347° North 119 137 8,000  Level Washington Center
Sun 05:24:01 PM 36.7431 -77.7900 352° North 131 151 8,000  Level Washington Center
Sun 05:27:01 PM 36.8553 -77.8086 350° North 136 157 8,000  Level Washington Center
Sun 05:27:59 PM 36.8947 -77.8175 352° North 136 157 8,000  Level Washington Center
Sun 05:29:00 PM 36.9322 -77.8239 352° North 141 162 8,000  Level Washington Center
Sun 05:31:59 PM 37.0486 -77.8456 350° North 141 162 8,000  Level Washington Center
Sun 05:32:59 PM 37.0881 -77.8544 352° North 141 162 8,000  Level Washington Center
Sun 05:34:00 PM 37.1236 -77.8606 349° North 141 162 8,000  Level Washington Center
Sun 05:35:00 PM 37.1608 -77.8697 353° North 141 162 8,000  Level Washington Center
Sun 05:36:01 PM 37.2003 -77.8758 352° North 141 162 8,000  Level Washington Center
Sun 05:37:01 PM 37.2358 -77.8822 350° North 141 162 8,000  Level Washington Center
Sun 05:39:06 PM 37.3167 -77.9000 360° North 141 162 8,000  Level Potomac TRACON
Sun 05:40:00 PM 37.3500 -77.9000 338° Northwest 133 153 8,000  Level Potomac TRACON
Sun 05:41:00 PM 37.3833 -77.9167 360° North 119 137 8,000  Level Potomac TRACON
Sun 05:41:55 PM 37.4167 -77.9167 360° North 136 157 8,000  Level Potomac TRACON
Sun 05:43:01 PM 37.4500 -77.9167 338° Northwest 134 154 8,000  Level Potomac TRACON
Sun 05:44:01 PM 37.4833 -77.9333 360° North 140 161 8,000  Level Potomac TRACON
Sun 05:44:55 PM 37.5333 -77.9333 338° Northwest 139 160 8,000  Level Potomac TRACON
Sun 05:45:56 PM 37.5667 -77.9500 360° North 136 157 8,000  Level Potomac TRACON
Sun 05:46:50 PM 37.6000 -77.9500 338° Northwest 133 153 8,000  Level Potomac TRACON
Sun 05:47:56 PM 37.6333 -77.9667 360° North 141 162 8,000  Level Potomac TRACON
Sun 05:48:56 PM 37.6667 -77.9667 360° North 134 154 8,000  Level Potomac TRACON
Sun 05:49:50 PM 37.7167 -77.9667 338° Northwest 131 151 8,000  Level Potomac TRACON
Sun 05:50:57 PM 37.7500 -77.9833 360° North 131 151 8,000  Level Potomac TRACON
Sun 05:51:51 PM 37.7833 -77.9833 338° Northwest 131 151 8,000  Level Potomac TRACON
Sun 05:52:51 PM 37.8167 -78.0000 360° North 136 157 8,000  Level Potomac TRACON
Sun 05:53:51 PM 37.8500 -78.0000 345° North 138 159 8,000  Level Potomac TRACON
Sun 05:54:51 PM 37.9000 -78.0167 360° North 144 166 8,000  Level Potomac TRACON
Sun 05:55:46 PM 37.9333 -78.0167 338° Northwest 139 160 8,000  Level Potomac TRACON
Sun 05:56:52 PM 37.9667 -78.0333 360° North 136 157 8,000  Level Potomac TRACON
Sun 05:57:46 PM 38.0000 -78.0333 345° North 139 160 8,000  Level Potomac TRACON
Sun 05:58:52 PM 38.0500 -78.0500 360° North 140 161 8,000  Level Potomac TRACON
Sun 05:59:53 PM 38.0833 -78.0500 360° North 136 157 8,000  Level Potomac TRACON
Sun 06:00:53 PM 38.1167 -78.0500 345° North 141 162 8,000  Level Potomac TRACON
Sun 06:01:53 PM 38.1667 -78.0667 360° North 138 159 8,000  Level Potomac TRACON
Sun 06:02:53 PM 38.2000 -78.0667 339° North 133 153 8,000  Level Potomac TRACON
Sun 06:03:53 PM 38.2333 -78.0833 360° North 135 155 8,000  Level Potomac TRACON
Sun 06:04:53 PM 38.2667 -78.0833 339° North 131 151 8,000  Level Potomac TRACON
Sun 06:05:54 PM 38.3000 -78.1000 360° North 132 152 8,000  Level Potomac TRACON
Sun 06:06:54 PM 38.3500 -78.1000 339° North 133 153 8,000  Level Potomac TRACON
Sun 06:07:54 PM 38.3833 -78.1167 360° North 130 150 8,000  Level Potomac TRACON
Sun 06:08:54 PM 38.4167 -78.1167 339° North 138 159 8,000  Level Potomac TRACON
Sun 06:09:54 PM 38.4500 -78.1333 360° North 139 160 8,000  Level Potomac TRACON
Sun 06:10:55 PM 38.5000 -78.1333 360° North 135 155 8,000 -149 Level Potomac TRACON
Sun 06:11:55 PM 38.5333 -78.1333 339° North 145 167 7,700 -350 Descending Potomac TRACON
Sun 06:12:55 PM 38.5667 -78.1500 360° North 152 175 7,300 -350 Descending Potomac TRACON
Sun 06:13:55 PM 38.6167 -78.1500 339° North 152 175 7,000 -149 Descending Potomac TRACON
Sun 06:14:56 PM 38.6500 -78.1667 360° North 147 169 7,000  Level Potomac TRACON
Sun 06:15:56 PM 38.7000 -78.1667 360° North 144 166 7,000  Level Potomac TRACON
Sun 06:16:56 PM 38.7333 -78.1667 360° North 137 158 7,000  Level Potomac TRACON
Sun 06:17:56 PM 38.7667 -78.1667 360° North 138 159 7,000  Level Potomac TRACON
Sun 06:18:51 PM 38.8000 -78.1667 345° North 142 163 7,000  Level Potomac TRACON
Sun 06:19:51 PM 38.8500 -78.1833 360° North 141 162 7,000  Level Potomac TRACON
Sun 06:20:51 PM 38.8833 -78.1833 360° North 143 165 7,000  Level Potomac TRACON
Sun 06:21:51 PM 38.9333 -78.1833 360° North 146 168 7,000  Level Potomac TRACON
Sun 06:22:58 PM 38.9667 -78.1833 360° North 139 160 7,000  Level Potomac TRACON
Sun 06:23:52 PM 39.0000 -78.1833 360° North 142 163 7,000  Level Potomac TRACON
Sun 06:24:53 PM 39.0500 -78.1833 339° North 141 162 7,000  Level Potomac TRACON
Sun 06:25:59 PM 39.0833 -78.2000 360° North 138 159 7,000  Level Potomac TRACON
Sun 06:27:00 PM 39.1333 -78.2000 North 138 159 7,000  Level Potomac TRACON
Sun 06:27:47 PM 39.1500 -78.1986 358° North 151 174 7,000  Level Washington Center
Sun 06:28:48 PM 39.1875 -78.2000 356° North 151 174 7,000  Level Washington Center
Sun 06:29:49 PM 39.2269 -78.2039 358° North 140 161 7,000  Level Washington Center
Sun 06:30:47 PM 39.2644 -78.2053 355° North 140 161 7,000  Level Washington Center
Sun 06:31:47 PM 39.3039 -78.2094 355° North 140 161 7,000  Level Washington Center
Sun 06:32:48 PM 39.3433 -78.2136 356° North 140 161 7,000  Level Washington Center
Sun 06:33:49 PM 39.3831 -78.2175 358° North 140 161 7,000  Level Washington Center
Sun 06:34:47 PM 39.4206 -78.2189 355° North 140 161 7,000  Level Washington Center
Sun 06:35:47 PM 39.4600 -78.2231 343° North 140 161 7,000  Level Washington Center
Sun 06:36:47 PM 39.4972 -78.2378 345° North 140 161 7,000  Level Washington Center
Sun 06:39:04 PM 39.5892 -78.2692 319° Northwest 141 162 7,000  Level Cleveland Center
Sun 06:40:05 PM 39.6169 -78.3006 323° Northwest 144 166 7,000  Level Cleveland Center
Sun 06:41:06 PM 39.6489 -78.3319 323° Northwest 139 160 7,000  Level Cleveland Center
Sun 06:42:06 PM 39.6808 -78.3631 318° Northwest 139 160 7,000  Level Cleveland Center
Sun 06:43:07 PM 39.7128 -78.4000 317° Northwest 138 159 7,000  Level Cleveland Center
Sun 06:44:07 PM 39.7383 -78.4314 323° Northwest 136 157 7,000  Level Cleveland Center
Sun 06:45:08 PM 39.7681 -78.4603 316° Northwest 136 157 7,000  Level Cleveland Center
Sun 06:46:09 PM 39.7978 -78.4972 321° Northwest 138 159 7,000  Level Cleveland Center
Sun 06:47:09 PM 39.8278 -78.5286 345° North 139 160 7,000 215 Level Cleveland Center
Sun 06:49:24 PM 39.8969 -78.5536 16° North 133 153 7,700 309 Climbing Cleveland Center
Sun 06:50:23 PM 39.9281 -78.5419 358° North 127 146 8,000 252 Climbing Cleveland Center
Sun 06:51:23 PM 39.9633 -78.5433 North 122 140 8,200 250 Climbing Cleveland Center
Sun 06:52:23 PM 39.9967 -78.5425 North 122 140 8,500 298 Climbing Cleveland Center
Sun 06:53:24 PM 40.0322 -78.5414 358° North 122 140 8,800 250 Climbing Cleveland Center
Sun 06:54:23 PM 40.0656 -78.5431 North 122 140 9,000 101 Climbing Cleveland Center
Sun 06:55:23 PM 40.1031 -78.5419 North 122 140 9,000  Level Cleveland Center
Sun 06:56:23 PM 40.1447 -78.5406 North 127 146 9,000  Level Cleveland Center
Sun 06:57:24 PM 40.1844 -78.5394 North 133 153 9,000  Level Cleveland Center
Sun 06:58:23 PM 40.2156 -78.5386 North 139 160 9,000  Level Cleveland Center
Sun 06:59:23 PM 40.2636 -78.5369 358° North 139 160 9,000  Level Cleveland Center
Sun 07:00:23 PM 40.3031 -78.5386 North 139 160 9,000  Level Cleveland Center
Sun 07:01:23 PM 40.3447 -78.5372 North 139 160 9,000  Level Cleveland Center
Sun 07:02:23 PM 40.3844 -78.5361 North 139 160 9,000  Level Cleveland Center
Sun 07:03:24 PM 40.4239 -78.5347 North 144 166 9,000  Level Cleveland Center
Sun 07:04:24 PM 40.4636 -78.5336 358° North 144 166 9,000  Level Cleveland Center
Sun 07:05:23 PM 40.5033 -78.5350 North 144 166 9,000  Level Cleveland Center
Sun 07:06:23 PM 40.5492 -78.5308 North 144 166 9,000  Level Cleveland Center
Sun 07:07:23 PM 40.5886 -78.5297 358° North 144 166 9,000  Level Cleveland Center
Sun 07:08:23 PM 40.6283 -78.5314 North 144 166 9,000  Level Cleveland Center
Sun 07:09:23 PM 40.6594 -78.5303 North 144 166 9,000  Level Cleveland Center
Sun 07:10:23 PM 40.7053 -78.5289 North 144 166 9,000  Level Cleveland Center
Sun 07:11:23 PM 40.7469 -78.5275 358° North 144 166 9,000  Level Cleveland Center
Sun 07:12:24 PM 40.7889 -78.5292 North 144 166 9,000  Level Cleveland Center
Sun 07:13:24 PM 40.8306 -78.5278 North 144 166 9,000  Level Cleveland Center
Sun 07:14:23 PM 40.8700 -78.5264 358° North 144 166 9,000  Level Cleveland Center
Sun 07:15:23 PM 40.9117 -78.5281 North 144 166 9,000  Level Cleveland Center
Sun 07:16:23 PM 40.9514 -78.5267 North 144 166 9,000  Level Cleveland Center
Sun 07:17:23 PM 40.9931 -78.5253 North 144 166 9,000  Level Cleveland Center
Sun 07:18:23 PM 41.0347 -78.5242 North 144 166 9,000  Level Cleveland Center
Sun 07:19:24 PM 41.0783 -78.5228 North 144 166 9,000  Level Cleveland Center
Sun 07:20:24 PM 41.1200 -78.5214 359° North 144 166 9,000  Level Cleveland Center
Sun 07:21:24 PM 41.1619 -78.5228 North 144 166 9,000  Level Cleveland Center
Sun 07:22:23 PM 41.2078 -78.5214 North 144 166 9,000  Level Cleveland Center
Sun 07:23:23 PM 41.2431 -78.5203 359° North 151 174 9,000  Level Cleveland Center
Sun 07:24:24 PM 41.2953 -78.5214 North 156 180 9,000  Level Cleveland Center
Sun 07:25:24 PM 41.3369 -78.5172 North 156 180 9,000  Level Cleveland Center
Sun 07:28:24 PM 41.4578 -78.5133 360° North 139 160 9,000  Level Cleveland Center
Sun 07:34:23 PM 41.7078 -78.5111 North 145 167 9,000 Level Cleveland Center
Sun 07:39:23 PM 41.9161 -78.5042 North 145 167 9,100 17 Climbing Cleveland Center
Sun 07:40:23 PM 41.9578 -78.5031 359° North 145 167 9,100  Level Cleveland Center
Sun 07:41:23 PM 41.9994 -78.5044 359° North 145 167 9,100  Level Cleveland Center
Sun 07:42:23 PM 42.0414 -78.5058 North 145 167 9,100  Level Cleveland Center
Sun 07:43:24 PM 42.0831 -78.5044 North 145 167 9,100  Level Cleveland Center
Sun 07:44:23 PM 42.1247 -78.5031 North 145 167 9,100  Level Cleveland Center
Sun 07:45:24 PM 42.1642 -78.5017 North 145 167 9,100  Level Cleveland Center
Sun 07:46:23 PM 42.2122 -78.5003 North 152 175 9,100 -50 Level Cleveland Center
Sun 07:47:23 PM 42.2558 -78.4989 North 152 175 9,000 -150 Descending Cleveland Center
Sun 07:48:23 PM 42.2914 -78.4975 North 157 181 8,800 -350 Descending Cleveland Center
Sun 07:49:23 PM 42.3475 -78.4958 North 157 181 8,300 -450 Descending Cleveland Center
Sun 07:50:23 PM 42.3933 -78.4942 359° North 162 186 7,900 -397 Descending Cleveland Center
Sun 07:51:24 PM 42.4414 -78.4956 North 162 186 7,500 -397 Descending Cleveland Center
Sun 07:52:24 PM 42.4872 -78.4911 359° North 162 186 7,100 -350 Descending Cleveland Center
Sun 07:53:24 PM 42.5289 -78.4925 North 162 186 6,800 -350 Descending Cleveland Center
Sun 07:54:24 PM 42.5747 -78.4911 North 157 181 6,400 -400 Descending Cleveland Center
Sun 07:55:24 PM 42.6183 -78.4897 North 157 181 6,000 -440 Descending Cleveland Center
Sun 07:57:35 PM 42.7333 -78.4833 360° North 169 194 5,000 -457 Descending Buffalo TRACON
Sun 07:58:41 PM 42.7833 -78.4833 360° North 167 192 4,500 -429 Descending Buffalo TRACON
Sun 07:59:41 PM 42.8167 -78.4833 360° North 165 190 4,100 -400 Descending Buffalo TRACON
Sun 08:00:41 PM 42.8667 -78.4833 360° North 165 190 3,700 -316 Descending Buffalo TRACON
Sun 08:01:35 PM 42.9167 -78.4833 360° North 165 190 3,500 -421 Descending Buffalo TRACON
Sun 08:02:35 PM 42.9500 -78.4833 340° North 142 163 2,900 -694 Descending Buffalo TRACON
Sun 08:03:36 PM 42.9833 -78.5000 360° North 116 133 2,100 -694 Descending Buffalo TRACON
Sun 08:04:36 PM 43.0167 -78.5000 71° East 106 122 1,500 -600 Descending Buffalo TRACON
Sun 08:12:32 PM 43.1177 -78.0876 71° East  Level Estimated

Login

Don't have an account? Register now (free) for customized features, flight alerts, and more!